createdAt,value
2023-05-09T00:00:30.390Z,98048.47
2023-05-09T00:02:58.739Z,98043.31
2023-05-09T00:05:27.177Z,98040.75
2023-05-09T00:07:56.779Z,98037.25
2023-05-09T00:10:25.037Z,98041.53
2023-05-09T00:12:53.262Z,98033.78
2023-05-09T00:15:21.531Z,98035.53
2023-05-09T00:17:50.637Z,98036.47
2023-05-09T00:20:18.989Z,98035.75
2023-05-09T00:22:47.120Z,98028.72
2023-05-09T00:25:16.904Z,98024.38
2023-05-09T00:27:45.469Z,98028.78
2023-05-09T00:30:14.188Z,98029.56
2023-05-09T00:32:42.653Z,98027.94
2023-05-09T00:35:11.316Z,98027.97
2023-05-09T00:37:39.620Z,98025.41
2023-05-09T00:40:09.363Z,98021.91
2023-05-09T00:42:39.084Z,98024.50
2023-05-09T00:45:08.649Z,98026.22
2023-05-09T00:47:36.936Z,98021.88
2023-05-09T00:50:06.135Z,98013.25
2023-05-09T00:52:34.900Z,98009.78
2023-05-09T00:55:03.458Z,98013.34
2023-05-09T00:57:31.708Z,98012.47
2023-05-09T01:00:01.556Z,98011.56
2023-05-09T01:02:30.103Z,98013.31
2023-05-09T01:04:58.582Z,98011.59
2023-05-09T01:07:47.190Z,98006.38
2023-05-09T01:10:21.487Z,98004.41
2023-05-09T01:12:55.115Z,98001.13
2023-05-09T01:15:28.588Z,98002.75
2023-05-09T01:18:00.579Z,98006.06
2023-05-09T01:20:33.500Z,98000.00
2023-05-09T01:23:13.743Z,98002.50
2023-05-09T01:25:57.090Z,98003.50
2023-05-09T01:28:36.858Z,97999.31
2023-05-09T01:31:08.132Z,98003.75
2023-05-09T01:33:40.426Z,97994.22
2023-05-09T01:36:13.609Z,97995.16
2023-05-09T01:38:46.135Z,97987.38
2023-05-09T01:41:20.511Z,97991.72
2023-05-09T01:43:50.613Z,97998.56
2023-05-09T01:46:20.976Z,97992.56
2023-05-09T01:48:50.170Z,97988.25
2023-05-09T01:51:20.915Z,97997.75
2023-05-09T01:53:49.756Z,97998.53
2023-05-09T01:56:20.087Z,97994.13
2023-05-09T01:58:50.183Z,98000.25
2023-05-09T02:01:21.000Z,97993.22
2023-05-09T02:03:52.676Z,98006.78
2023-05-09T02:06:22.098Z,98014.66
2023-05-09T02:08:51.104Z,98005.50
2023-05-09T02:11:19.374Z,98005.31
2023-05-09T02:13:47.665Z,98004.38
2023-05-09T02:16:17.254Z,98002.47
2023-05-09T02:18:47.192Z,98003.41
2023-05-09T02:21:15.611Z,98007.66
2023-05-09T02:23:43.971Z,98005.00
2023-05-09T02:26:12.499Z,98006.88
2023-05-09T02:28:41.336Z,98008.34
2023-05-09T02:31:09.775Z,97999.69
2023-05-09T02:33:39.420Z,97994.28
2023-05-09T02:36:11.915Z,97995.22
2023-05-09T02:38:41.708Z,98001.44
2023-05-09T02:41:14.143Z,97997.81
2023-05-09T02:43:42.880Z,98000.44
2023-05-09T02:46:11.613Z,97998.72
2023-05-09T02:48:39.871Z,97992.59
2023-05-09T02:51:09.545Z,97997.97
2023-05-09T02:53:37.716Z,97992.84
2023-05-09T02:56:06.492Z,97995.38
2023-05-09T02:58:34.764Z,98002.56
2023-05-09T03:01:03.218Z,97999.81
2023-05-09T03:03:34.150Z,97999.06
2023-05-09T03:06:05.108Z,97996.28
2023-05-09T03:08:34.697Z,97996.50
2023-05-09T03:11:03.071Z,98000.88
2023-05-09T03:13:31.987Z,98002.75
2023-05-09T03:16:00.566Z,98001.00
2023-05-09T03:18:28.873Z,97996.09
2023-05-09T03:20:57.091Z,97997.03
2023-05-09T03:23:25.556Z,98002.34
2023-05-09T03:25:55.602Z,97998.78
2023-05-09T03:28:23.969Z,98002.25
2023-05-09T03:30:52.198Z,98005.72
2023-05-09T03:33:23.817Z,98008.31
2023-05-09T03:35:53.492Z,98005.69
2023-05-09T03:38:24.353Z,98010.03
2023-05-09T03:40:55.059Z,98010.84
2023-05-09T03:43:25.641Z,98011.59
2023-05-09T03:45:54.434Z,98004.78
2023-05-09T03:48:22.632Z,98013.34
2023-05-09T03:50:52.916Z,98011.56
2023-05-09T03:53:21.804Z,98022.66
2023-05-09T03:55:51.636Z,98011.47
2023-05-09T03:58:20.670Z,98020.94
2023-05-09T04:00:50.822Z,98020.19
2023-05-09T04:03:23.381Z,98019.47
2023-05-09T04:05:53.216Z,98028.84
2023-05-09T04:08:37.942Z,98018.31
2023-05-09T04:11:06.832Z,98022.84
2023-05-09T04:13:36.372Z,98027.88
2023-05-09T04:16:12.522Z,98028.75
2023-05-09T04:18:42.342Z,98035.41
2023-05-09T04:21:10.867Z,98040.63
2023-05-09T04:23:40.797Z,98037.06
2023-05-09T04:26:09.712Z,98032.00
2023-05-09T04:28:39.058Z,98031.81
2023-05-09T04:31:08.304Z,98033.47
2023-05-09T04:33:39.484Z,98035.31
2023-05-09T04:36:10.779Z,98040.53
2023-05-09T04:38:39.199Z,98032.59
2023-05-09T04:41:11.306Z,98031.53
2023-05-09T04:43:39.447Z,98039.25
2023-05-09T04:46:10.049Z,98036.69
2023-05-09T04:48:40.025Z,98028.09
2023-05-09T04:51:08.289Z,98032.28
2023-05-09T04:53:36.607Z,98036.47
2023-05-09T04:56:05.115Z,98034.69
2023-05-09T04:58:34.552Z,98033.09
2023-05-09T05:01:02.992Z,98037.50
2023-05-09T05:03:31.691Z,98037.44
2023-05-09T05:06:01.630Z,98034.69
2023-05-09T05:08:29.908Z,98047.47
2023-05-09T05:11:06.153Z,98040.22
2023-05-09T05:13:35.928Z,98041.69
2023-05-09T05:16:04.659Z,98040.94
2023-05-09T05:18:33.014Z,98039.06
2023-05-09T05:21:02.751Z,98046.13
2023-05-09T05:23:31.081Z,98048.72
2023-05-09T05:25:59.790Z,98052.69
2023-05-09T05:28:30.670Z,98054.56
2023-05-09T05:30:59.428Z,98051.84
2023-05-09T05:33:27.854Z,98052.91
2023-05-09T05:35:56.752Z,98053.78
2023-05-09T05:38:26.430Z,98053.25
2023-05-09T05:40:57.274Z,98054.34
2023-05-09T05:43:27.318Z,98052.84
2023-05-09T05:45:56.300Z,98047.09
2023-05-09T05:48:26.760Z,98051.59
2023-05-09T05:50:55.897Z,98050.88
2023-05-09T05:53:32.070Z,98051.41
2023-05-09T05:56:01.242Z,98043.59
2023-05-09T05:58:30.287Z,98053.22
2023-05-09T06:00:58.519Z,98055.66
2023-05-09T06:03:26.990Z,98051.69
2023-05-09T06:06:01.774Z,98046.97
2023-05-09T06:08:32.024Z,98040.47
2023-05-09T06:11:02.008Z,98040.16
2023-05-09T06:13:30.384Z,98038.81
2023-05-09T06:16:18.776Z,98033.81
2023-05-09T06:18:51.162Z,98035.97
2023-05-09T06:21:19.962Z,98036.47
2023-05-09T06:24:04.338Z,98039.31
2023-05-09T06:26:36.638Z,98035.91
2023-05-09T06:29:06.385Z,98032.72
2023-05-09T06:31:38.409Z,98030.41
2023-05-09T06:34:06.915Z,98037.28
2023-05-09T06:36:35.207Z,98030.63
2023-05-09T06:39:04.864Z,98031.56
2023-05-09T06:41:33.093Z,98027.53
2023-05-09T06:44:02.604Z,98025.19
2023-05-09T06:46:30.814Z,98024.00
2023-05-09T06:49:01.767Z,98018.28
2023-05-09T06:51:30.078Z,98016.66
2023-05-09T06:53:58.380Z,98019.56
2023-05-09T06:56:28.262Z,98013.19
2023-05-09T06:58:56.471Z,98011.84
2023-05-09T07:01:24.831Z,98004.16
2023-05-09T07:03:53.011Z,98009.41
2023-05-09T07:06:21.464Z,98007.09
2023-05-09T07:08:49.643Z,98010.50
2023-05-09T07:11:17.929Z,98012.16
2023-05-09T07:13:47.563Z,98002.41
2023-05-09T07:16:16.022Z,98006.88
2023-05-09T07:18:45.184Z,97999.75
2023-05-09T07:21:13.928Z,98002.19
2023-05-09T07:23:42.271Z,98001.06
2023-05-09T07:26:10.454Z,98002.75
2023-05-09T07:28:39.072Z,97998.38
2023-05-09T07:31:09.474Z,98003.94
2023-05-09T07:33:37.843Z,97996.16
2023-05-09T07:36:06.649Z,97990.63
2023-05-09T07:38:34.867Z,97986.97
2023-05-09T07:41:03.280Z,97986.00
2023-05-09T07:43:32.050Z,97979.75
2023-05-09T07:46:02.600Z,97978.09
2023-05-09T07:48:32.452Z,97971.50
2023-05-09T07:51:01.115Z,97974.97
2023-05-09T07:53:29.530Z,97976.34
2023-05-09T07:55:59.157Z,97977.00
2023-05-09T07:58:27.396Z,97974.03
2023-05-09T08:00:57.414Z,97974.78
2023-05-09T08:03:25.975Z,97978.47
2023-05-09T08:05:56.454Z,97971.00
2023-05-09T08:08:24.843Z,97972.72
2023-05-09T08:10:53.033Z,97964.50
2023-05-09T08:13:22.351Z,97969.69
2023-05-09T08:15:50.849Z,97965.59
2023-05-09T08:18:19.048Z,97962.81
2023-05-09T08:20:47.193Z,97950.69
2023-05-09T08:23:16.750Z,97955.94
2023-05-09T08:25:44.860Z,97952.53
2023-05-09T08:28:13.023Z,97948.72
2023-05-09T08:30:41.278Z,97944.91
2023-05-09T08:33:09.436Z,97948.78
2023-05-09T08:35:37.678Z,97950.38
2023-05-09T08:38:05.825Z,97948.00
2023-05-09T08:40:38.783Z,97948.97
2023-05-09T08:43:08.535Z,97947.69
2023-05-09T08:48:10.073Z,97954.28
2023-05-09T08:50:38.646Z,97951.44
2023-05-09T08:53:07.825Z,97956.19
2023-05-09T08:55:38.126Z,97954.13
2023-05-09T08:58:07.086Z,97953.22
2023-05-09T09:00:35.399Z,97969.66
2023-05-09T09:03:04.568Z,97951.13
2023-05-09T09:05:41.359Z,97955.09
2023-05-09T09:08:11.117Z,97955.38
2023-05-09T09:10:43.531Z,97950.19
2023-05-09T09:13:12.801Z,97946.84
2023-05-09T09:15:42.713Z,97949.75
2023-05-09T09:18:13.815Z,97945.13
2023-05-09T09:20:45.305Z,97940.44
2023-05-09T09:23:13.967Z,97942.28
2023-05-09T09:25:47.123Z,97935.56
2023-05-09T09:28:15.489Z,97945.44
2023-05-09T09:30:48.565Z,97933.66
2023-05-09T09:33:23.413Z,97929.38
2023-05-09T09:35:52.495Z,97926.03
2023-05-09T09:38:21.290Z,97929.13
2023-05-09T09:40:57.650Z,97932.31
2023-05-09T09:43:29.364Z,97938.59
2023-05-09T09:45:58.559Z,97933.66
2023-05-09T09:48:27.093Z,97933.53
2023-05-09T09:50:57.860Z,97941.22
2023-05-09T09:53:30.325Z,97927.97
2023-05-09T09:56:00.124Z,97932.66
2023-05-09T09:58:28.346Z,97926.16
2023-05-09T10:01:07.510Z,97921.91
2023-05-09T10:03:39.935Z,97920.22
2023-05-09T10:06:12.286Z,97913.59
2023-05-09T10:08:40.552Z,97928.78
2023-05-09T10:11:10.750Z,97921.00
2023-05-09T10:13:39.424Z,97918.78
2023-05-09T10:16:10.162Z,97914.66
2023-05-09T10:18:39.400Z,97914.66
2023-05-09T10:21:09.586Z,97901.31
2023-05-09T10:23:39.322Z,97896.88
2023-05-09T10:26:18.872Z,97904.97
2023-05-09T10:28:47.914Z,97903.47
2023-05-09T10:31:19.694Z,97907.09
2023-05-09T10:33:48.950Z,97909.78
2023-05-09T10:36:20.489Z,97915.19
2023-05-09T10:38:49.389Z,97899.13
2023-05-09T10:41:19.802Z,97901.94
2023-05-09T10:43:48.537Z,97908.00
2023-05-09T10:46:17.441Z,97892.78
2023-05-09T10:48:46.198Z,97897.34
2023-05-09T10:51:14.486Z,97896.81
2023-05-09T10:53:44.387Z,97899.59
2023-05-09T10:56:27.096Z,97899.06
2023-05-09T10:58:55.780Z,97893.03
2023-05-09T11:01:32.880Z,97883.22
2023-05-09T11:04:02.055Z,97870.53
2023-05-09T11:06:57.848Z,97871.44
2023-05-09T11:09:34.074Z,97869.44
2023-05-09T11:12:11.821Z,97872.69
2023-05-09T11:14:42.396Z,97861.47
2023-05-09T11:17:12.641Z,97852.72
2023-05-09T11:20:01.052Z,97855.34
2023-05-09T11:22:30.833Z,97851.78
2023-05-09T11:25:05.760Z,97846.44
2023-05-09T11:27:42.502Z,97846.34
2023-05-09T11:30:14.326Z,97851.47
2023-05-09T11:32:44.942Z,97849.88
2023-05-09T11:35:15.546Z,97843.94
2023-05-09T11:37:48.510Z,97834.47
2023-05-09T11:40:18.406Z,97827.03
2023-05-09T11:42:50.004Z,97830.00
2023-05-09T11:45:18.794Z,97822.69
2023-05-09T11:47:47.958Z,97819.59
2023-05-09T11:50:17.753Z,97816.16
2023-05-09T11:52:46.377Z,97819.22
2023-05-09T11:55:16.725Z,97816.28
2023-05-09T11:57:48.922Z,97810.41
2023-05-09T12:00:18.187Z,97806.97
2023-05-09T12:02:47.219Z,97805.28
2023-05-09T12:05:17.552Z,97802.13
2023-05-09T12:07:46.281Z,97798.31
2023-05-09T12:10:15.921Z,97797.44
2023-05-09T12:12:45.738Z,97794.63
2023-05-09T12:15:16.125Z,97792.28
2023-05-09T12:17:46.883Z,97787.56
2023-05-09T12:20:15.925Z,97788.94
2023-05-09T12:22:45.021Z,97776.28
2023-05-09T12:25:13.960Z,97780.75
2023-05-09T12:27:43.112Z,97782.66
2023-05-09T12:30:14.219Z,97777.25
2023-05-09T12:32:44.142Z,97769.31
2023-05-09T12:35:12.525Z,97767.38
2023-05-09T12:37:40.692Z,97768.88
2023-05-09T12:40:13.117Z,97760.34
2023-05-09T12:42:46.125Z,97765.72
2023-05-09T12:45:15.790Z,97760.97
2023-05-09T12:47:45.766Z,97754.31
2023-05-09T12:50:14.050Z,97752.25
2023-05-09T12:53:01.352Z,97753.78
2023-05-09T12:55:31.907Z,97740.69
2023-05-09T12:58:02.305Z,97742.19
2023-05-09T13:00:43.173Z,97736.84
2023-05-09T13:03:25.255Z,97730.91
2023-05-09T13:05:58.102Z,97713.44
2023-05-09T13:08:26.739Z,97711.50
2023-05-09T13:11:03.927Z,97704.50
2023-05-09T13:13:43.295Z,97711.25
2023-05-09T13:16:13.480Z,97707.22
2023-05-09T13:18:45.677Z,97702.19
2023-05-09T13:21:14.049Z,97707.88
2023-05-09T13:23:44.590Z,97711.28
2023-05-09T13:26:12.848Z,97706.91
2023-05-09T13:28:41.169Z,97701.28
2023-05-09T13:31:09.609Z,97697.22
2023-05-09T13:33:37.842Z,97704.13
2023-05-09T13:36:08.188Z,97699.03
2023-05-09T13:38:38.863Z,97694.09
2023-05-09T13:41:07.462Z,97688.28
2023-05-09T13:43:35.750Z,97689.50
2023-05-09T13:46:04.399Z,97680.84
2023-05-09T13:48:32.630Z,97684.56
2023-05-09T13:51:01.512Z,97681.50
2023-05-09T13:53:31.444Z,97674.19
2023-05-09T13:55:59.770Z,97669.81
2023-05-09T13:58:28.010Z,97676.84
2023-05-09T14:00:56.224Z,97663.53
2023-05-09T14:03:24.681Z,97667.69
2023-05-09T14:05:53.491Z,97667.31
2023-05-09T14:08:22.732Z,97658.28
2023-05-09T14:10:52.739Z,97654.91
2023-05-09T14:13:23.562Z,97646.06
2023-05-09T14:16:02.271Z,97646.28
2023-05-09T14:18:31.074Z,97645.22
2023-05-09T14:21:00.352Z,97643.91
2023-05-09T14:23:31.591Z,97639.78
2023-05-09T14:26:01.593Z,97636.84
2023-05-09T14:28:29.917Z,97635.59
2023-05-09T14:30:58.849Z,97635.31
2023-05-09T14:33:29.189Z,97629.53
2023-05-09T14:36:02.951Z,97624.31
2023-05-09T14:38:37.742Z,97636.91
2023-05-09T14:41:09.252Z,97631.91
2023-05-09T14:43:37.618Z,97625.47
2023-05-09T14:46:06.776Z,97626.47
2023-05-09T14:48:34.974Z,97619.38
2023-05-09T14:51:03.316Z,97628.56
2023-05-09T14:53:31.714Z,97625.19
2023-05-09T14:56:00.304Z,97626.47
2023-05-09T14:58:30.994Z,97619.53
2023-05-09T15:00:59.336Z,97620.50
2023-05-09T15:03:27.693Z,97620.81
2023-05-09T15:05:55.982Z,97614.38
2023-05-09T15:08:24.191Z,97617.53
2023-05-09T15:10:52.434Z,97624.59
2023-05-09T15:13:21.022Z,97617.38
2023-05-09T15:15:51.102Z,97611.34
2023-05-09T15:18:20.171Z,97618.44
2023-05-09T15:20:52.065Z,97616.75
2023-05-09T15:23:20.730Z,97617.38
2023-05-09T15:25:49.333Z,97611.28
2023-05-09T15:28:17.569Z,97607.72
2023-05-09T15:30:45.890Z,97606.97
2023-05-09T15:33:15.768Z,97601.84
2023-05-09T15:35:45.183Z,97608.91
2023-05-09T15:38:14.379Z,97604.16
2023-05-09T15:40:44.377Z,97595.41
2023-05-09T15:43:13.021Z,97595.69
2023-05-09T15:45:45.715Z,97595.47
2023-05-09T15:48:16.357Z,97587.28
2023-05-09T15:50:45.763Z,97589.06
2023-05-09T15:53:15.635Z,97591.09
2023-05-09T15:55:44.147Z,97582.00
2023-05-09T15:58:16.399Z,97581.50
2023-05-09T16:00:45.463Z,97577.63
2023-05-09T16:03:15.359Z,97579.47
2023-05-09T16:05:43.897Z,97574.91
2023-05-09T16:08:12.942Z,97579.78
2023-05-09T16:10:41.696Z,97573.59
2023-05-09T16:13:10.392Z,97574.13
2023-05-09T16:15:38.673Z,97571.78
2023-05-09T16:18:07.758Z,97569.28
2023-05-09T16:20:37.546Z,97568.38
2023-05-09T16:23:05.704Z,97565.22
2023-05-09T16:25:35.393Z,97563.91
2023-05-09T16:28:03.901Z,97570.94
2023-05-09T16:30:32.313Z,97568.47
2023-05-09T16:33:02.730Z,97558.31
2023-05-09T16:35:31.028Z,97569.66
2023-05-09T16:38:03.305Z,97555.84
2023-05-09T16:40:32.253Z,97556.38
2023-05-09T16:43:01.749Z,97551.81
2023-05-09T16:45:30.405Z,97547.34
2023-05-09T16:48:02.599Z,97552.13
2023-05-09T16:51:00.129Z,97546.09
2023-05-09T16:53:37.379Z,97546.47
2023-05-09T16:56:22.138Z,97542.91
2023-05-09T16:58:58.016Z,97535.09
2023-05-09T17:01:30.277Z,97532.94
2023-05-09T17:04:01.813Z,97534.81
2023-05-09T17:06:31.151Z,97538.81
2023-05-09T17:09:01.961Z,97539.59
2023-05-09T17:11:32.551Z,97542.34
2023-05-09T17:14:03.571Z,97537.34
2023-05-09T17:16:32.838Z,97538.34
2023-05-09T17:19:05.250Z,97539.97
2023-05-09T17:21:35.879Z,97539.59
2023-05-09T17:24:09.312Z,97543.97
2023-05-09T17:26:39.289Z,97538.09
2023-05-09T17:29:08.296Z,97536.25
2023-05-09T17:31:37.631Z,97536.97
2023-05-09T17:34:09.275Z,97531.91
2023-05-09T17:36:39.101Z,97536.03
2023-05-09T17:42:20.181Z,97533.66
2023-05-09T17:45:21.493Z,97533.78
2023-05-09T17:48:21.607Z,97529.28
2023-05-09T17:50:52.291Z,97525.53
2023-05-09T17:53:28.704Z,97529.84
2023-05-09T17:56:01.672Z,97526.38
2023-05-09T17:58:30.932Z,97521.78
2023-05-09T18:01:01.659Z,97529.50
2023-05-09T18:03:46.450Z,97524.41
2023-05-09T18:06:18.924Z,97527.31
2023-05-09T18:08:50.053Z,97518.88
2023-05-09T18:11:31.407Z,97522.75
2023-05-09T18:14:18.003Z,97530.41
2023-05-09T18:17:26.990Z,97535.06
2023-05-09T18:19:59.127Z,97528.34
2023-05-09T18:22:31.505Z,97532.22
2023-05-09T18:25:04.099Z,97535.72
2023-05-09T18:27:38.613Z,97532.50
2023-05-09T18:30:17.423Z,97537.34
2023-05-09T18:33:02.504Z,97533.47
2023-05-09T18:35:38.842Z,97541.47
2023-05-09T18:38:10.566Z,97536.09
2023-05-09T18:40:46.363Z,97545.16
2023-05-09T18:43:22.079Z,97542.78
2023-05-09T18:45:57.200Z,97540.66
2023-05-09T18:48:27.884Z,97546.94
2023-05-09T18:50:57.659Z,97540.00
2023-05-09T18:53:27.374Z,97545.41
2023-05-09T18:55:57.489Z,97549.22
2023-05-09T18:58:29.037Z,97546.06
2023-05-09T19:00:59.951Z,97551.69
2023-05-09T19:03:32.077Z,97544.44
2023-05-09T19:06:01.505Z,97543.47
2023-05-09T19:08:33.477Z,97537.81
2023-05-09T19:11:02.736Z,97547.94
2023-05-09T19:13:41.133Z,97545.44
2023-05-09T19:16:10.730Z,97550.13
2023-05-09T19:18:39.976Z,97544.59
2023-05-09T19:21:09.478Z,97535.03
2023-05-09T19:23:39.561Z,97538.75
2023-05-09T19:26:09.825Z,97540.69
2023-05-09T19:28:42.175Z,97541.06
2023-05-09T19:31:12.258Z,97539.44
2023-05-09T19:33:42.301Z,97539.63
2023-05-09T19:36:13.990Z,97538.13
2023-05-09T19:38:46.436Z,97544.34
2023-05-09T19:41:18.495Z,97548.13
2023-05-09T19:43:51.917Z,97547.38
2023-05-09T19:46:23.303Z,97543.22
2023-05-09T19:48:54.130Z,97542.25
2023-05-09T19:51:24.016Z,97532.69
2023-05-09T19:53:53.220Z,97534.41
2023-05-09T19:56:23.863Z,97534.44
2023-05-09T19:58:55.505Z,97533.84
2023-05-09T20:01:25.802Z,97533.75
2023-05-09T20:03:57.393Z,97529.97
2023-05-09T20:06:27.604Z,97524.59
2023-05-09T20:08:56.924Z,97529.25
2023-05-09T20:11:26.360Z,97525.84
2023-05-09T20:13:57.001Z,97525.59
2023-05-09T20:16:27.239Z,97522.00
2023-05-09T20:18:59.682Z,97519.66
2023-05-09T20:21:30.076Z,97523.16
2023-05-09T20:24:01.201Z,97519.88
2023-05-09T20:26:31.397Z,97524.31
2023-05-09T20:29:08.206Z,97520.97
2023-05-09T20:31:37.611Z,97520.22
2023-05-09T20:34:11.206Z,97518.94
2023-05-09T20:36:40.468Z,97512.28
2023-05-09T20:39:11.610Z,97516.16
2023-05-09T20:41:43.561Z,97521.22
2023-05-09T20:44:19.222Z,97520.31
2023-05-09T20:46:49.951Z,97520.38
2023-05-09T20:49:19.835Z,97518.94
2023-05-09T20:51:52.112Z,97513.38
2023-05-09T20:54:21.020Z,97514.50
2023-05-09T20:56:50.311Z,97506.31
2023-05-09T20:59:22.688Z,97509.34
2023-05-09T21:01:52.299Z,97500.03
2023-05-09T21:04:21.320Z,97498.41
2023-05-09T21:06:51.061Z,97495.53
2023-05-09T21:09:22.023Z,97498.00
2023-05-09T21:11:54.050Z,97494.66
2023-05-09T21:14:24.661Z,97502.34
2023-05-09T21:16:57.535Z,97498.03
2023-05-09T21:19:27.271Z,97495.59
2023-05-09T21:21:56.184Z,97495.75
2023-05-09T21:24:26.637Z,97499.47
2023-05-09T21:27:04.992Z,97503.72
2023-05-09T21:29:44.626Z,97504.63
2023-05-09T21:32:17.075Z,97490.38
2023-05-09T21:34:54.996Z,97496.66
2023-05-09T21:37:28.755Z,97483.31
2023-05-09T21:40:04.164Z,97486.63
2023-05-09T21:42:37.550Z,97490.09
2023-05-09T21:45:16.601Z,97486.38
2023-05-09T21:47:45.270Z,97489.78
2023-05-09T21:50:23.441Z,97490.44
2023-05-09T21:53:01.226Z,97488.44
2023-05-09T21:55:58.750Z,97489.84
2023-05-09T22:02:14.802Z,97485.41
2023-05-09T22:04:45.276Z,97482.69
2023-05-09T22:07:14.035Z,97483.25
2023-05-09T22:09:42.764Z,97472.06
2023-05-09T22:12:11.080Z,97477.22
2023-05-09T22:14:52.754Z,97470.09
2023-05-09T22:17:27.235Z,97470.56
2023-05-09T22:19:58.040Z,97469.75
2023-05-09T22:22:28.316Z,97469.75
2023-05-09T22:24:59.133Z,97466.09
2023-05-09T22:27:57.950Z,97458.81
2023-05-09T22:30:37.354Z,97460.78
2023-05-09T22:33:10.165Z,97465.97
2023-05-09T22:35:46.118Z,97454.63
2023-05-09T22:38:21.849Z,97462.00
2023-05-09T22:40:50.524Z,97460.94
2023-05-09T22:43:20.249Z,97460.53
2023-05-09T22:45:48.865Z,97450.81
2023-05-09T22:48:20.843Z,97445.59
2023-05-09T22:50:51.427Z,97445.47
2023-05-09T22:53:27.490Z,97446.75
2023-05-09T22:55:59.987Z,97438.44
2023-05-09T22:58:33.495Z,97441.34
2023-05-09T23:01:02.784Z,97438.03
2023-05-09T23:03:32.899Z,97432.84
2023-05-09T23:08:55.394Z,97430.09
2023-05-09T23:11:24.539Z,97418.84
2023-05-09T23:14:02.111Z,97426.09
2023-05-09T23:17:25.837Z,97417.25
2023-05-09T23:20:09.375Z,97419.91
2023-05-09T23:22:41.032Z,97410.00
2023-05-09T23:25:34.260Z,97408.28
2023-05-09T23:28:09.082Z,97405.38
2023-05-09T23:30:42.525Z,97401.72
2023-05-09T23:33:16.505Z,97397.41
2023-05-09T23:36:03.761Z,97391.09
2023-05-09T23:38:35.647Z,97382.78
2023-05-09T23:41:05.495Z,97382.13
2023-05-09T23:43:36.105Z,97383.25
2023-05-09T23:46:05.316Z,97373.78
2023-05-09T23:48:38.649Z,97375.69
2023-05-09T23:51:13.452Z,97381.03
2023-05-09T23:53:49.248Z,97369.22
2023-05-09T23:56:44.812Z,97368.47
2023-05-09T23:59:13.013Z,97369.38
